Time;durP1;ratioP1;P1;durP2;ratioP2;P2;SDS_P1;SDS_P2;PMS_P1;PMS_P2;Temp;Humidity;BMP_temperature;BMP_pressure;BME280_temperature;BME280_humidity;BME280_pressure;Samples;Min_cycle;Max_cycle;Signal;HPM_P1;HPM_P2
2024/01/17 00:02:01;;;;;;;23.50;20.87;;;-3.60;99.90;;;;;;5044287;28;20446;-80
2024/01/17 00:04:29;;;;;;;24.07;21.53;;;-3.70;99.90;;;;;;5045967;28;20442;-80
2024/01/17 00:06:57;;;;;;;25.40;21.13;;;-3.60;99.90;;;;;;5043999;28;20477;-80
2024/01/17 00:09:23;;;;;;;27.60;23.23;;;-3.60;99.90;;;;;;5051288;28;20980;-80
2024/01/17 00:11:51;;;;;;;23.90;21.50;;;-3.50;99.90;;;;;;5043394;28;20473;-80
2024/01/17 00:14:18;;;;;;;26.37;21.87;;;-3.50;99.90;;;;;;5039305;28;20442;-80
2024/01/17 00:16:45;;;;;;;22.87;20.43;;;-3.50;99.90;;;;;;5041597;28;20979;-78
2024/01/17 00:19:11;;;;;;;24.10;21.50;;;-3.60;99.90;;;;;;5032890;28;20563;-78
2024/01/17 00:21:39;;;;;;;22.90;20.50;;;-3.60;99.90;;;;;;5040049;28;20448;-80
2024/01/17 00:24:07;;;;;;;23.20;20.87;;;-3.60;99.90;;;;;;5031396;28;20497;-78
2024/01/17 00:26:33;;;;;;;25.73;21.33;;;-3.60;99.90;;;;;;5032512;28;20500;-78
2024/01/17 00:29:00;;;;;;;23.47;20.97;;;-3.60;99.90;;;;;;5043916;28;20526;-78
2024/01/17 00:31:27;;;;;;;25.63;20.60;;;-3.60;99.90;;;;;;5042568;28;20446;-78
2024/01/17 00:33:54;;;;;;;22.97;20.13;;;-3.70;99.90;;;;;;5042823;28;20454;-78
2024/01/17 00:36:21;;;;;;;23.37;20.93;;;-3.60;99.90;;;;;;5036751;28;20501;-78
2024/01/17 00:38:49;;;;;;;22.17;19.93;;;-3.60;99.90;;;;;;5047074;28;20458;-80
2024/01/17 00:41:18;;;;;;;24.57;21.67;;;-3.60;99.90;;;;;;5035694;28;20559;-80
2024/01/17 00:43:45;;;;;;;24.57;21.13;;;-3.60;99.90;;;;;;5043896;28;20446;-80
2024/01/17 00:46:11;;;;;;;21.50;19.30;;;-3.60;99.90;;;;;;5044066;28;20447;-78
2024/01/17 00:48:38;;;;;;;22.90;20.50;;;-3.60;99.90;;;;;;5048959;28;20469;-78
2024/01/17 00:51:05;;;;;;;23.07;20.77;;;-3.60;99.90;;;;;;5034953;28;20462;-80
2024/01/17 00:53:33;;;;;;;21.83;19.50;;;-3.60;99.90;;;;;;5046833;28;20445;-80
2024/01/17 00:56:01;;;;;;;23.17;19.80;;;-3.60;99.90;;;;;;5036876;28;20438;-80
2024/01/17 00:58:28;;;;;;;22.37;20.07;;;-3.50;99.90;;;;;;5040731;28;20499;-80
2024/01/17 01:00:55;;;;;;;24.70;21.13;;;-3.60;99.90;;;;;;5042032;28;20445;-80
2024/01/17 01:03:22;;;;;;;24.97;22.00;;;-3.50;99.90;;;;;;5024559;28;20512;-80
2024/01/17 01:05:49;;;;;;;26.63;22.87;;;-3.50;99.90;;;;;;5047192;28;20433;-80
2024/01/17 01:08:16;;;;;;;25.90;22.40;;;-3.30;99.90;;;;;;5035250;28;20516;-80
2024/01/17 01:10:42;;;;;;;24.83;21.47;;;-3.20;99.90;;;;;;5046612;28;20446;-80
2024/01/17 01:13:10;;;;;;;27.00;22.43;;;-3.20;99.90;;;;;;5037150;28;20443;-80
2024/01/17 01:15:37;;;;;;;27.47;23.23;;;-3.10;99.90;;;;;;5048836;28;20933;-80
2024/01/17 01:18:04;;;;;;;23.90;21.30;;;-3.00;99.90;;;;;;5036364;28;20478;-80
2024/01/17 01:20:31;;;;;;;24.40;21.90;;;-2.90;99.90;;;;;;5037497;28;20439;-80
2024/01/17 01:22:58;;;;;;;23.27;20.77;;;-2.80;99.90;;;;;;5034133;28;20439;-80
2024/01/17 01:25:26;;;;;;;24.83;21.23;;;-2.80;99.90;;;;;;5035852;28;20437;-78
2024/01/17 01:27:52;;;;;;;23.40;20.27;;;-2.80;99.90;;;;;;5038554;28;20557;-80
2024/01/17 01:30:21;;;;;;;23.33;20.93;;;-2.80;99.90;;;;;;5040608;28;20488;-78
2024/01/17 01:32:47;;;;;;;24.03;21.20;;;-2.70;99.90;;;;;;5043463;28;20533;-78
2024/01/17 01:35:14;;;;;;;24.03;21.53;;;-2.70;99.90;;;;;;5042841;28;20460;-78
2024/01/17 01:37:41;;;;;;;27.67;23.27;;;-2.70;99.90;;;;;;5036477;28;20933;-80
2024/01/17 01:40:09;;;;;;;27.77;22.23;;;-2.70;99.90;;;;;;5044047;28;20445;-80
2024/01/17 01:42:36;;;;;;;23.73;21.30;;;-2.70;99.90;;;;;;5038427;28;20665;-80
2024/01/17 01:45:04;;;;;;;23.53;21.13;;;-2.70;99.90;;;;;;5044007;28;20499;-80
2024/01/17 01:47:33;;;;;;;27.63;22.30;;;-2.70;99.90;;;;;;5034476;28;20497;-80
2024/01/17 01:50:00;;;;;;;24.10;21.60;;;-2.70;99.90;;;;;;5038742;28;20474;-79
2024/01/17 01:52:27;;;;;;;23.00;20.47;;;-2.60;99.90;;;;;;5043585;28;20854;-80
2024/01/17 01:54:55;;;;;;;23.73;21.20;;;-2.50;99.90;;;;;;5039751;28;20492;-80
2024/01/17 01:57:24;;;;;;;23.20;20.73;;;-2.50;99.90;;;;;;5049566;28;20516;-80
2024/01/17 01:59:53;;;;;;;24.23;21.83;;;-2.60;99.90;;;;;;5033336;28;20857;-80
2024/01/17 02:02:24;;;;;;;25.93;23.33;;;-2.60;99.90;;;;;;5051144;28;20434;-80
2024/01/17 02:04:54;;;;;;;26.43;23.17;;;-2.50;99.90;;;;;;5036780;28;20492;-80
2024/01/17 02:07:22;;;;;;;24.67;22.17;;;-2.50;99.90;;;;;;5042575;28;21040;-81
2024/01/17 02:09:49;;;;;;;25.27;22.53;;;-2.50;99.90;;;;;;5046467;28;20443;-80
2024/01/17 02:12:16;;;;;;;26.23;23.43;;;-2.50;99.90;;;;;;5044307;28;20459;-78
2024/01/17 02:14:44;;;;;;;28.03;23.23;;;-2.40;99.90;;;;;;5041496;28;20507;-78
2024/01/17 02:17:11;;;;;;;29.53;24.10;;;-2.40;99.90;;;;;;5043806;28;21063;-78
2024/01/17 02:19:41;;;;;;;29.30;23.73;;;-2.40;99.90;;;;;;5042214;28;20857;-77
2024/01/17 02:22:09;;;;;;;25.40;22.67;;;-2.40;99.90;;;;;;5035709;28;20869;-80
2024/01/17 02:24:37;;;;;;;25.67;23.13;;;-2.40;99.90;;;;;;5040959;28;20495;-80
2024/01/17 02:27:04;;;;;;;25.10;22.60;;;-2.40;99.90;;;;;;5046672;28;20431;-80
2024/01/17 02:29:31;;;;;;;24.80;22.30;;;-2.40;99.90;;;;;;5043856;28;20503;-80
2024/01/17 02:31:58;;;;;;;26.83;23.73;;;-2.30;99.90;;;;;;5046513;28;20478;-77
2024/01/17 02:34:25;;;;;;;25.23;22.03;;;-2.20;99.90;;;;;;5044571;28;20438;-80
2024/01/17 02:36:51;;;;;;;24.93;22.27;;;-2.20;99.90;;;;;;5046833;28;20501;-80
2024/01/17 02:39:17;;;;;;;24.73;22.13;;;-2.10;99.90;;;;;;5045810;28;20885;-80
2024/01/17 02:41:46;;;;;;;24.13;21.57;;;-2.00;99.90;;;;;;5053857;28;20197;-80
2024/01/17 02:44:12;;;;;;;24.47;21.93;;;-2.00;99.90;;;;;;5050243;28;20442;-80
2024/01/17 02:46:39;;;;;;;23.57;21.00;;;-2.00;99.90;;;;;;5043448;28;20454;-80
2024/01/17 02:49:06;;;;;;;23.80;21.30;;;-2.00;99.90;;;;;;5048444;28;20460;-80
2024/01/17 02:51:33;;;;;;;23.40;20.97;;;-1.90;99.90;;;;;;5051472;28;20449;-80
2024/01/17 02:53:59;;;;;;;24.50;21.93;;;-1.90;99.90;;;;;;5049801;28;20477;-80
2024/01/17 02:56:26;;;;;;;23.30;21.07;;;-1.90;99.90;;;;;;5045712;28;20443;-79
2024/01/17 02:58:54;;;;;;;24.53;22.03;;;-1.90;99.90;;;;;;5039731;28;20489;-80
2024/01/17 03:01:21;;;;;;;25.13;22.07;;;-1.90;99.90;;;;;;5047983;28;20476;-80
2024/01/17 03:03:49;;;;;;;25.23;22.70;;;-1.80;99.90;;;;;;5039674;28;20439;-79
2024/01/17 03:06:17;;;;;;;24.80;22.20;;;-1.80;99.90;;;;;;5046704;28;20481;-79
2024/01/17 03:08:44;;;;;;;24.33;21.67;;;-1.80;99.90;;;;;;5038397;28;20463;-80
2024/01/17 03:11:11;;;;;;;25.27;21.63;;;-1.80;99.90;;;;;;5041579;28;20524;-80
2024/01/17 03:13:37;;;;;;;24.93;22.43;;;-1.70;99.90;;;;;;5046751;28;20449;-80
2024/01/17 03:16:06;;;;;;;25.77;23.17;;;-1.70;99.90;;;;;;5051496;28;20438;-80
2024/01/17 03:18:33;;;;;;;24.83;22.43;;;-1.70;99.90;;;;;;5046713;28;20511;-80
2024/01/17 03:21:03;;;;;;;24.13;21.50;;;-1.60;99.90;;;;;;5047131;28;20451;-81
2024/01/17 03:23:30;;;;;;;25.97;23.03;;;-1.60;99.90;;;;;;5043836;28;20497;-80
2024/01/17 03:25:57;;;;;;;24.40;21.80;;;-1.50;99.90;;;;;;5040821;28;20484;-80
2024/01/17 03:28:24;;;;;;;25.83;21.93;;;-1.50;99.90;;;;;;5042015;28;20459;-80
2024/01/17 03:30:50;;;;;;;24.67;22.13;;;-1.50;99.90;;;;;;5052410;28;20461;-80
2024/01/17 03:33:19;;;;;;;24.87;22.37;;;-1.40;99.90;;;;;;5037302;28;20442;-80
2024/01/17 03:35:46;;;;;;;23.60;20.80;;;-1.40;99.90;;;;;;5043899;28;20939;-80
2024/01/17 03:38:12;;;;;;;24.40;21.77;;;-1.40;99.90;;;;;;5047248;28;20475;-80
2024/01/17 03:40:39;;;;;;;25.23;22.53;;;-1.30;99.90;;;;;;5040521;28;20451;-80
2024/01/17 03:43:06;;;;;;;24.77;22.17;;;-1.30;99.90;;;;;;5040676;28;20457;-79
2024/01/17 03:45:33;;;;;;;26.53;23.73;;;-1.20;99.90;;;;;;5047106;28;20447;-79
2024/01/17 03:47:59;;;;;;;29.23;23.43;;;-1.30;99.90;;;;;;5048324;28;20457;-80
2024/01/17 03:50:28;;;;;;;26.67;24.00;;;-1.20;99.90;;;;;;5050031;28;20455;-77
2024/01/17 03:52:54;;;;;;;28.73;24.63;;;-1.20;99.90;;;;;;5030299;28;20448;-82
2024/01/17 03:55:21;;;;;;;29.20;24.60;;;-1.10;99.90;;;;;;5029989;28;20502;-79
2024/01/17 03:57:48;;;;;;;26.43;23.90;;;-1.00;99.90;;;;;;5021977;28;20481;-83
2024/01/17 04:00:16;;;;;;;27.27;24.57;;;-0.90;99.90;;;;;;5027492;28;20970;-82
2024/01/17 04:02:43;;;;;;;25.13;22.53;;;-0.90;99.90;;;;;;5031779;28;20490;-82
2024/01/17 04:05:09;;;;;;;26.60;23.33;;;-0.80;99.90;;;;;;5040923;28;20818;-81
2024/01/17 04:07:37;;;;;;;25.07;22.57;;;-0.80;99.90;;;;;;5040084;28;20941;-80
2024/01/17 04:10:06;;;;;;;26.13;23.30;;;-0.80;99.90;;;;;;5026544;28;20435;-83
2024/01/17 04:12:33;;;;;;;24.60;22.00;;;-0.80;99.90;;;;;;5034475;28;20465;-82
2024/01/17 04:14:59;;;;;;;23.73;21.33;;;-0.80;99.90;;;;;;5044586;28;20455;-86
2024/01/17 04:17:29;;;;;;;23.07;20.80;;;-0.80;99.90;;;;;;5045415;28;20560;-83
2024/01/17 04:19:56;;;;;;;25.17;22.33;;;-0.80;99.90;;;;;;5026744;28;20506;-82
2024/01/17 04:22:23;;;;;;;23.57;21.33;;;-0.80;99.90;;;;;;5032490;28;20962;-83
2024/01/17 04:24:51;;;;;;;25.47;22.70;;;-0.70;99.90;;;;;;5041367;28;21000;-82
2024/01/17 04:27:18;;;;;;;25.57;22.93;;;-0.80;99.90;;;;;;5040281;28;20898;-80
2024/01/17 04:29:45;;;;;;;25.17;21.70;;;-0.80;99.90;;;;;;5043494;28;20465;-82
2024/01/17 04:32:12;;;;;;;24.87;22.50;;;-0.80;99.90;;;;;;5040809;28;20465;-83
2024/01/17 04:34:39;;;;;;;23.43;21.13;;;-0.80;99.90;;;;;;5042901;28;20500;-79
2024/01/17 04:37:07;;;;;;;21.00;18.90;;;-0.80;99.90;;;;;;5040058;28;20472;-79
2024/01/17 04:39:33;;;;;;;21.23;19.13;;;-0.70;99.90;;;;;;5050018;28;20458;-79
2024/01/17 04:42:01;;;;;;;24.10;21.57;;;-0.70;99.90;;;;;;5043393;28;21036;-79
2024/01/17 04:44:30;;;;;;;23.20;20.73;;;-0.80;99.90;;;;;;5025426;28;20877;-79
2024/01/17 04:46:57;;;;;;;25.00;21.93;;;-0.70;99.90;;;;;;5043918;28;20447;-79
2024/01/17 04:49:26;;;;;;;23.57;21.07;;;-0.80;99.90;;;;;;5044469;28;20431;-80
2024/01/17 04:51:53;;;;;;;23.90;21.50;;;-0.80;99.90;;;;;;5044416;28;20448;-79
2024/01/17 04:54:21;;;;;;;24.30;21.73;;;-0.90;99.90;;;;;;5040878;28;20441;-79
2024/01/17 04:56:48;;;;;;;23.90;21.50;;;-0.90;99.90;;;;;;5049396;28;20453;-79
2024/01/17 04:59:16;;;;;;;23.53;21.33;;;-0.90;99.90;;;;;;5031064;28;20512;-79
2024/01/17 05:01:43;;;;;;;23.67;21.27;;;-0.90;99.90;;;;;;5034899;28;20502;-79
2024/01/17 05:04:09;;;;;;;22.43;20.03;;;-0.80;99.90;;;;;;5041264;28;20443;-79
2024/01/17 05:06:36;;;;;;;23.37;21.10;;;-0.90;99.90;;;;;;5034538;28;20493;-79
2024/01/17 05:09:07;;;;;;;21.47;19.30;;;-0.80;99.90;;;;;;5045145;28;20507;-79
2024/01/17 05:11:34;;;;;;;23.73;20.20;;;-0.80;99.90;;;;;;5033640;28;20449;-79
2024/01/17 05:14:01;;;;;;;24.87;22.40;;;-0.80;99.90;;;;;;5044152;28;20875;-79
2024/01/17 05:16:29;;;;;;;22.63;20.37;;;-0.80;99.90;;;;;;5039893;28;20449;-79
2024/01/17 05:18:56;;;;;;;22.10;19.70;;;-0.80;99.90;;;;;;5048714;28;21132;-78
2024/01/17 05:21:23;;;;;;;23.67;20.93;;;-0.80;99.90;;;;;;5031916;28;21013;-79
2024/01/17 05:23:49;;;;;;;23.07;20.47;;;-0.80;99.90;;;;;;5041993;28;21024;-79
2024/01/17 05:26:17;;;;;;;23.40;20.87;;;-0.80;99.90;;;;;;5041112;28;20429;-79
2024/01/17 05:28:43;;;;;;;23.73;20.47;;;-0.80;99.90;;;;;;5043176;28;20530;-79
2024/01/17 05:31:10;;;;;;;21.53;19.23;;;-0.70;99.90;;;;;;5048792;28;20451;-79
2024/01/17 05:33:39;;;;;;;21.93;19.63;;;-0.80;99.90;;;;;;5044832;28;20468;-79
2024/01/17 05:36:06;;;;;;;24.17;21.63;;;-0.70;99.90;;;;;;5045716;28;20955;-80
2024/01/17 05:38:32;;;;;;;22.87;20.57;;;-0.70;99.90;;;;;;5040335;28;20995;-79
2024/01/17 05:40:59;;;;;;;27.73;24.07;;;-0.70;99.90;;;;;;5040873;28;20854;-80
2024/01/17 05:43:26;;;;;;;26.53;24.00;;;-0.70;99.90;;;;;;5046108;28;20509;-77
2024/01/17 05:45:57;;;;;;;22.60;20.27;;;-0.70;99.90;;;;;;5040440;28;20979;-77
2024/01/17 05:48:24;;;;;;;24.37;21.83;;;-0.60;99.90;;;;;;5045772;28;20487;-77
2024/01/17 05:50:52;;;;;;;25.20;22.93;;;-0.60;99.90;;;;;;5040885;28;20709;-76
2024/01/17 05:53:19;;;;;;;26.50;23.63;;;-0.50;99.90;;;;;;5038257;28;20450;-76
2024/01/17 05:55:46;;;;;;;23.90;21.40;;;-0.50;99.90;;;;;;5036953;28;20548;-77
2024/01/17 05:58:13;;;;;;;24.00;21.60;;;-0.50;99.90;;;;;;5049347;28;20559;-77
2024/01/17 06:00:40;;;;;;;23.60;21.33;;;-0.50;99.90;;;;;;5044770;28;20576;-76
2024/01/17 06:03:07;;;;;;;28.53;22.13;;;-0.50;99.90;;;;;;5046887;28;20452;-79
2024/01/17 06:05:34;;;;;;;22.03;19.90;;;-0.40;99.90;;;;;;5038368;28;20871;-78
2024/01/17 06:08:02;;;;;;;24.17;21.27;;;-0.40;99.90;;;;;;5053246;28;20549;-79
2024/01/17 06:10:29;;;;;;;23.47;20.67;;;-0.40;99.90;;;;;;5049570;28;20433;-79
2024/01/17 06:12:56;;;;;;;24.20;21.70;;;-0.40;99.90;;;;;;5037968;28;20456;-76
2024/01/17 06:15:23;;;;;;;23.67;21.20;;;-0.40;99.90;;;;;;5047095;28;20491;-77
2024/01/17 06:17:49;;;;;;;23.20;20.93;;;-0.30;99.90;;;;;;5049266;28;20480;-77
2024/01/17 06:20:16;;;;;;;25.53;22.93;;;-0.30;99.90;;;;;;5033532;28;20441;-77
2024/01/17 06:22:43;;;;;;;24.97;22.57;;;-0.30;99.90;;;;;;5050021;28;20538;-77
2024/01/17 06:25:12;;;;;;;24.27;22.07;;;-0.30;99.90;;;;;;5035745;28;20468;-77
2024/01/17 06:27:38;;;;;;;25.10;22.63;;;-0.40;99.90;;;;;;5045835;28;20862;-77
2024/01/17 06:30:07;;;;;;;23.83;21.43;;;-0.40;99.90;;;;;;5047062;28;20436;-79
2024/01/17 06:32:34;;;;;;;22.87;20.47;;;-0.30;99.90;;;;;;5043300;28;20457;-79
2024/01/17 06:35:02;;;;;;;23.53;21.03;;;-0.30;99.90;;;;;;5047123;28;20441;-80
2024/01/17 06:37:28;;;;;;;23.73;21.17;;;-0.40;99.90;;;;;;5052712;28;20469;-79
2024/01/17 06:39:55;;;;;;;21.80;19.70;;;-0.30;99.90;;;;;;5035660;28;20493;-76
2024/01/17 06:42:23;;;;;;;22.60;20.07;;;-0.30;99.90;;;;;;5048602;28;20824;-77
2024/01/17 06:44:50;;;;;;;22.93;20.63;;;-0.30;99.90;;;;;;5040716;28;20513;-79
2024/01/17 06:47:17;;;;;;;23.60;21.40;;;-0.40;99.90;;;;;;5043168;28;20973;-79
2024/01/17 06:49:44;;;;;;;23.80;21.43;;;-0.40;99.90;;;;;;5046925;28;20991;-80
2024/01/17 06:52:10;;;;;;;24.37;22.03;;;-0.30;99.90;;;;;;5046345;28;20449;-79
2024/01/17 06:54:37;;;;;;;23.03;20.93;;;-0.30;99.90;;;;;;5041261;28;20486;-77
2024/01/17 06:57:07;;;;;;;23.37;21.07;;;-0.20;99.90;;;;;;5038966;28;20440;-77
2024/01/17 06:59:35;;;;;;;24.43;22.13;;;-0.20;99.90;;;;;;5036134;28;20477;-77
2024/01/17 07:02:02;;;;;;;26.07;23.47;;;-0.20;99.90;;;;;;5037343;28;20479;-76
2024/01/17 07:04:28;;;;;;;24.20;21.90;;;-0.20;99.90;;;;;;5047938;28;20447;-77
2024/01/17 07:06:55;;;;;;;26.07;23.47;;;-0.20;99.90;;;;;;5040033;28;20474;-77
2024/01/17 07:09:22;;;;;;;27.37;23.70;;;-0.10;99.90;;;;;;5044995;28;21002;-77
2024/01/17 07:11:48;;;;;;;26.10;23.53;;;-0.10;99.90;;;;;;5045500;28;20472;-77
2024/01/17 07:14:15;;;;;;;26.37;23.77;;;0.00;99.90;;;;;;5039787;28;20441;-77
2024/01/17 07:16:43;;;;;;;26.40;23.73;;;0.00;99.90;;;;;;5045468;28;20439;-77
2024/01/17 07:19:09;;;;;;;26.80;23.93;;;0.00;99.90;;;;;;5044271;28;20512;-77
2024/01/17 07:21:39;;;;;;;25.10;22.63;;;0.10;99.90;;;;;;5049376;28;20459;-79
2024/01/17 07:24:06;;;;;;;24.87;22.27;;;0.20;99.90;;;;;;5039185;28;20281;-77
2024/01/17 07:26:33;;;;;;;25.37;22.77;;;0.20;99.90;;;;;;5040452;28;20445;-80
2024/01/17 07:29:00;;;;;;;25.30;22.60;;;0.20;99.90;;;;;;5044741;28;20926;-79
2024/01/17 07:31:27;;;;;;;24.33;21.73;;;0.30;99.90;;;;;;5045915;28;20975;-80
2024/01/17 07:33:55;;;;;;;25.00;22.30;;;0.30;99.90;;;;;;5040949;28;20446;-79
2024/01/17 07:36:22;;;;;;;25.93;23.07;;;0.30;99.90;;;;;;5046507;28;20456;-79
2024/01/17 07:38:49;;;;;;;30.33;22.80;;;0.40;99.90;;;;;;5036499;28;20553;-79
2024/01/17 07:41:16;;;;;;;24.70;22.07;;;0.40;99.90;;;;;;5046671;28;21034;-79
2024/01/17 07:43:43;;;;;;;24.40;21.67;;;0.40;99.90;;;;;;5044242;28;20445;-80
2024/01/17 07:46:12;;;;;;;25.33;22.63;;;0.50;99.90;;;;;;5039149;28;20458;-82
2024/01/17 07:48:39;;;;;;;25.13;22.53;;;0.50;99.90;;;;;;5041757;28;20962;-82
2024/01/17 07:51:08;;;;;;;26.47;23.80;;;0.60;99.90;;;;;;5044734;28;20985;-83
2024/01/17 07:53:35;;;;;;;28.70;23.73;;;0.70;99.90;;;;;;5042583;28;20547;-83
2024/01/17 07:56:04;;;;;;;25.37;22.77;;;0.80;99.90;;;;;;5046321;28;20438;-82
2024/01/17 07:58:31;;;;;;;25.43;22.83;;;0.90;99.90;;;;;;5049205;28;20477;-80
2024/01/17 08:00:58;;;;;;;27.67;24.00;;;0.90;99.90;;;;;;5046066;28;20845;-81
2024/01/17 08:03:25;;;;;;;27.13;24.47;;;1.00;99.90;;;;;;5050253;28;20444;-80
2024/01/17 08:05:52;;;;;;;26.47;23.77;;;1.10;99.90;;;;;;5042830;28;20450;-80
2024/01/17 08:08:20;;;;;;;25.17;22.77;;;1.20;99.90;;;;;;5038540;28;20470;-81
2024/01/17 08:10:47;;;;;;;24.67;22.20;;;1.30;99.90;;;;;;5032879;28;20469;-81
2024/01/17 08:13:14;;;;;;;22.40;20.50;;;1.40;99.90;;;;;;5036702;28;20445;-80
2024/01/17 08:15:40;;;;;;;22.47;20.37;;;1.50;99.90;;;;;;5040738;28;20459;-80
2024/01/17 08:18:08;;;;;;;21.50;19.50;;;1.60;99.90;;;;;;5044056;28;20242;-82
2024/01/17 08:20:36;;;;;;;19.83;17.97;;;1.70;99.90;;;;;;5037943;28;20534;-82
2024/01/17 08:23:06;;;;;;;18.33;16.73;;;1.90;99.90;;;;;;5039835;28;20288;-81
2024/01/17 08:25:34;;;;;;;18.27;16.67;;;2.00;99.90;;;;;;5060689;28;20200;-77
2024/01/17 08:28:01;;;;;;;18.07;16.47;;;2.10;99.90;;;;;;5044573;28;20269;-78
2024/01/17 08:30:27;;;;;;;17.90;16.43;;;2.10;99.90;;;;;;5049714;28;20191;-81
2024/01/17 08:32:54;;;;;;;17.03;15.73;;;2.20;99.90;;;;;;5035971;28;20200;-82
2024/01/17 08:35:21;;;;;;;15.83;14.67;;;2.30;99.90;;;;;;5042149;28;20192;-81
2024/01/17 08:37:48;;;;;;;15.27;14.27;;;2.40;99.90;;;;;;5031372;28;20243;-82
2024/01/17 08:40:15;;;;;;;16.13;15.03;;;2.50;99.90;;;;;;5045107;28;20214;-82
2024/01/17 08:42:45;;;;;;;15.20;14.20;;;2.60;99.90;;;;;;5047686;28;20207;-78
2024/01/17 08:45:12;;;;;;;14.50;13.40;;;2.60;99.90;;;;;;5041465;28;20192;-78
2024/01/17 08:47:42;;;;;;;14.37;13.47;;;2.70;99.90;;;;;;5035276;28;20605;-78
2024/01/17 08:50:09;;;;;;;14.47;13.57;;;2.70;99.90;;;;;;5043800;28;20188;-78
2024/01/17 08:52:36;;;;;;;15.37;14.37;;;2.80;99.90;;;;;;5029489;28;20195;-78
2024/01/17 08:55:08;;;;;;;15.13;14.23;;;2.80;99.90;;;;;;5030630;28;20549;-79
2024/01/17 08:57:36;;;;;;;15.93;14.93;;;2.90;99.90;;;;;;5032134;28;20220;-79
2024/01/17 09:00:06;;;;;;;15.17;14.27;;;2.90;99.90;;;;;;5038991;28;20293;-79
2024/01/17 09:02:33;;;;;;;15.20;14.20;;;3.00;99.90;;;;;;5043895;28;20234;-78
2024/01/17 09:05:00;;;;;;;15.10;14.20;;;3.10;99.90;;;;;;5032370;28;20694;-79
2024/01/17 09:07:27;;;;;;;14.57;13.77;;;3.20;99.90;;;;;;5038666;28;20269;-79
2024/01/17 09:09:53;;;;;;;14.17;13.37;;;3.20;99.90;;;;;;5043116;28;20250;-81
2024/01/17 09:12:20;;;;;;;13.60;12.80;;;3.20;99.90;;;;;;5045993;28;20284;-82
2024/01/17 09:14:47;;;;;;;14.20;13.40;;;3.20;99.90;;;;;;5044954;28;20203;-79
2024/01/17 09:17:15;;;;;;;14.23;13.43;;;3.30;99.90;;;;;;5049710;28;20223;-78
2024/01/17 09:19:43;;;;;;;14.40;13.60;;;3.30;99.90;;;;;;5042003;28;20624;-78
2024/01/17 09:22:10;;;;;;;14.07;13.17;;;3.40;99.90;;;;;;5033289;28;20206;-79
2024/01/17 09:24:39;;;;;;;13.67;12.90;;;3.40;99.90;;;;;;5038839;28;20203;-79
2024/01/17 09:27:05;;;;;;;14.00;13.20;;;3.50;99.90;;;;;;5031171;28;20211;-78
2024/01/17 09:29:34;;;;;;;14.00;13.20;;;3.50;99.90;;;;;;5039066;28;20221;-78
2024/01/17 09:32:01;;;;;;;13.60;12.80;;;3.50;99.90;;;;;;5030485;28;20299;-78
2024/01/17 09:34:29;;;;;;;13.90;13.10;;;3.60;99.90;;;;;;5030382;28;20287;-79
2024/01/17 09:36:55;;;;;;;14.00;13.20;;;3.60;99.90;;;;;;5030939;28;20212;-79
2024/01/17 09:39:23;;;;;;;13.80;13.00;;;3.70;99.90;;;;;;5050238;28;20235;-78
2024/01/17 09:41:50;;;;;;;13.43;12.70;;;3.70;99.90;;;;;;5029822;28;20214;-77
2024/01/17 09:44:17;;;;;;;13.50;12.80;;;3.70;99.90;;;;;;5030945;28;20192;-78
2024/01/17 09:46:45;;;;;;;13.60;12.80;;;3.80;99.90;;;;;;5030703;28;20200;-79
2024/01/17 09:49:12;;;;;;;13.67;12.97;;;3.90;99.90;;;;;;5031375;28;20234;-78
2024/01/17 09:51:40;;;;;;;14.07;13.30;;;4.00;99.90;;;;;;5031640;28;20223;-79
2024/01/17 09:54:07;;;;;;;14.93;14.10;;;4.00;99.90;;;;;;5030104;28;20204;-78
2024/01/17 09:56:35;;;;;;;14.67;13.87;;;4.10;99.90;;;;;;5035242;28;20184;-78
2024/01/17 09:59:09;;;;;;;14.87;13.97;;;4.10;99.90;;;;;;5030528;28;20219;-78
2024/01/17 10:01:37;;;;;;;14.10;13.30;;;4.20;99.90;;;;;;5031689;28;20204;-77
2024/01/17 10:04:05;;;;;;;14.13;13.33;;;4.20;99.90;;;;;;5036072;28;20246;-79
2024/01/17 10:06:33;;;;;;;14.40;13.60;;;4.30;99.90;;;;;;5044399;28;20593;-79
2024/01/17 10:09:04;;;;;;;14.23;13.43;;;4.30;99.90;;;;;;5045683;28;20340;-79
2024/01/17 10:11:30;;;;;;;15.57;14.67;;;4.40;99.90;;;;;;5038535;28;20575;-78
2024/01/17 10:13:57;;;;;;;15.20;14.40;;;4.40;99.90;;;;;;5030117;28;20254;-79
2024/01/17 10:16:26;;;;;;;16.03;15.03;;;4.50;99.90;;;;;;5029981;28;20222;-78
2024/01/17 10:18:53;;;;;;;18.30;16.90;;;4.40;99.90;;;;;;5042241;28;20235;-81
2024/01/17 10:21:20;;;;;;;19.80;18.27;;;4.30;99.90;;;;;;5048155;28;20198;-83
2024/01/17 10:23:47;;;;;;;19.90;18.50;;;4.30;99.90;;;;;;5050650;28;20191;-83
2024/01/17 10:26:18;;;;;;;18.50;17.23;;;4.30;99.90;;;;;;5052010;28;20193;-80
2024/01/17 10:28:46;;;;;;;19.10;17.50;;;4.40;99.90;;;;;;5038569;28;20310;-78
2024/01/17 10:31:13;;;;;;;24.77;22.53;;;4.30;99.90;;;;;;5031878;28;20297;-78
2024/01/17 10:33:41;;;;;;;24.93;22.73;;;4.20;99.90;;;;;;5036972;28;20192;-79
2024/01/17 10:36:09;;;;;;;28.07;25.40;;;3.90;99.90;;;;;;5032281;28;20200;-79
2024/01/17 10:38:35;;;;;;;26.47;24.07;;;3.70;99.90;;;;;;5040329;28;20224;-78
2024/01/17 10:41:06;;;;;;;25.93;23.63;;;3.70;99.90;;;;;;5050635;28;20227;-79
2024/01/17 10:43:51;;;;;;;27.50;24.87;;;3.60;99.90;;;;;;5035897;28;20192;-82
2024/01/17 10:46:18;;;;;;;26.07;23.77;;;3.60;99.90;;;;;;5038848;28;20665;-78
2024/01/17 10:48:45;;;;;;;27.43;24.97;;;3.50;99.90;;;;;;5041283;28;20259;-78
2024/01/17 10:51:17;;;;;;;27.23;24.63;;;3.50;99.90;;;;;;5049060;28;20201;-78
2024/01/17 10:53:47;;;;;;;27.80;25.07;;;3.50;99.90;;;;;;5051879;28;20199;-78
2024/01/17 10:56:18;;;;;;;25.87;23.77;;;3.40;99.90;;;;;;5047730;28;20199;-78
2024/01/17 10:58:50;;;;;;;27.63;25.03;;;3.30;99.90;;;;;;5046955;28;20664;-79
2024/01/17 11:01:21;;;;;;;27.20;24.80;;;3.30;99.90;;;;;;5049457;28;20266;-78
2024/01/17 11:03:49;;;;;;;27.33;24.90;;;3.30;99.90;;;;;;5047490;28;20666;-79
2024/01/17 11:06:17;;;;;;;27.03;24.40;;;3.40;99.90;;;;;;5050145;28;20827;-79
2024/01/17 11:08:46;;;;;;;26.97;24.57;;;3.30;99.90;;;;;;5048978;28;20719;-79
2024/01/17 11:11:14;;;;;;;25.17;23.03;;;3.30;99.90;;;;;;5046449;28;20237;-79
2024/01/17 11:13:43;;;;;;;27.30;24.90;;;3.30;99.90;;;;;;5042760;28;20209;-79
2024/01/17 11:16:15;;;;;;;28.40;25.70;;;3.40;99.90;;;;;;5040715;28;20204;-78
2024/01/17 11:18:45;;;;;;;28.40;25.73;;;3.40;99.90;;;;;;5036613;28;20311;-79
2024/01/17 11:21:12;;;;;;;27.13;24.83;;;3.50;99.90;;;;;;5043930;28;20251;-79
2024/01/17 11:23:43;;;;;;;27.00;24.60;;;3.60;99.90;;;;;;5040517;28;20193;-79
2024/01/17 11:26:19;;;;;;;26.17;23.97;;;3.70;99.90;;;;;;5045489;28;20265;-78
2024/01/17 11:28:59;;;;;;;26.43;24.13;;;3.80;99.90;;;;;;5048758;28;20656;-78
2024/01/17 11:31:38;;;;;;;26.50;24.20;;;3.70;99.90;;;;;;5044790;28;20901;-79
2024/01/17 11:34:06;;;;;;;26.57;24.13;;;3.70;99.90;;;;;;5045942;28;20662;-79
2024/01/17 11:36:44;;;;;;;26.87;24.47;;;3.80;99.90;;;;;;5044491;28;20274;-79
2024/01/17 11:39:12;;;;;;;27.33;24.57;;;3.90;99.90;;;;;;5047805;28;20223;-79
2024/01/17 11:41:39;;;;;;;25.90;23.70;;;3.90;99.90;;;;;;5035640;28;20189;-79
2024/01/17 11:44:10;;;;;;;41.27;34.87;;;4.10;99.90;;;;;;5031009;28;20205;-79
2024/01/17 11:46:39;;;;;;;45.40;36.17;;;4.20;99.90;;;;;;5041663;28;20623;-79
2024/01/17 11:49:06;;;;;;;39.13;34.40;;;4.30;99.90;;;;;;5033395;28;20288;-79
2024/01/17 11:51:34;;;;;;;33.77;30.27;;;4.50;99.90;;;;;;5043706;28;20191;-79
2024/01/17 11:54:03;;;;;;;32.17;29.07;;;4.50;99.90;;;;;;5030639;28;20228;-79
2024/01/17 11:56:30;;;;;;;34.43;30.73;;;4.40;99.90;;;;;;5027995;28;20330;-79
2024/01/17 11:59:05;;;;;;;32.97;29.77;;;4.30;99.90;;;;;;5045728;28;20232;-79
2024/01/17 12:01:43;;;;;;;33.27;29.90;;;4.40;99.90;;;;;;5042306;28;20209;-77
2024/01/17 12:04:13;;;;;;;29.63;26.87;;;4.50;99.90;;;;;;5045901;28;20254;-76
2024/01/17 12:06:41;;;;;;;30.73;27.63;;;4.50;99.90;;;;;;5047311;28;20259;-79
2024/01/17 12:09:15;;;;;;;32.47;29.23;;;4.40;99.90;;;;;;5043766;28;20231;-80
2024/01/17 12:11:41;;;;;;;28.90;26.40;;;4.30;99.90;;;;;;5034923;28;20551;-80
2024/01/17 12:14:08;;;;;;;28.90;26.20;;;4.20;99.90;;;;;;5040420;28;20208;-78
2024/01/17 12:16:34;;;;;;;28.90;26.37;;;4.00;99.90;;;;;;5043492;28;20691;-79
2024/01/17 12:19:03;;;;;;;28.63;25.93;;;3.90;99.90;;;;;;5043389;28;20232;-80
2024/01/17 12:21:31;;;;;;;28.63;26.03;;;3.80;99.90;;;;;;5043478;28;20227;-81
2024/01/17 12:23:58;;;;;;;28.97;26.30;;;3.70;99.90;;;;;;5048928;28;20223;-80
2024/01/17 12:26:25;;;;;;;27.97;25.40;;;3.70;99.90;;;;;;5035418;28;20200;-81
2024/01/17 12:29:05;;;;;;;26.07;23.73;;;3.80;99.90;;;;;;5041809;28;20253;-80
2024/01/17 12:31:32;;;;;;;26.50;24.33;;;3.80;99.90;;;;;;5038691;28;20184;-79
2024/01/17 12:33:59;;;;;;;26.70;24.37;;;3.80;99.90;;;;;;5035274;28;20612;-80